Time;durP1;ratioP1;P1;durP2;ratioP2;P2;SDS_P1;SDS_P2;PMS_P1;PMS_P2;Temp;Humidity;BMP_temperature;BMP_pressure;BME280_temperature;BME280_humidity;BME280_pressure;Samples;Min_cycle;Max_cycle;Signal;HPM_P1;HPM_P2
2023/10/25 00:02:20;;;;;;;;;;;;;;;;;;112456;211;39735;-35
2023/10/25 00:04:56;;;;;;;;;;;;;;;;;;112377;210;42818;-35
2023/10/25 00:07:30;;;;;;;;;;;;;;;;;;112400;210;41614;-35
2023/10/25 00:10:04;;;;;;;;;;;;;;;;;;112326;210;38681;-36
2023/10/25 00:12:39;;;;;;;;;;;;;;;;;;112860;210;39715;-36
2023/10/25 00:15:14;;;;;;;;;;;;;;;;;;112415;210;44045;-36
2023/10/25 00:17:47;;;;;;;;;;;;;;;;;;112410;210;42277;-36
2023/10/25 00:20:26;;;;;;;;;;;;;;;;;;112404;210;38620;-36
2023/10/25 00:23:01;;;;;;;;;;;;;;;;;;112336;210;39583;-36
2023/10/25 00:25:36;;;;;;;;;;;;;;;;;;112448;210;42674;-36
2023/10/25 00:28:11;;;;;;;;;;;;;;;;;;112382;210;41458;-36
2023/10/25 00:30:45;;;;;;;;;;;;;;;;;;112449;210;38941;-36
2023/10/25 00:33:19;;;;;;;;;;;;;;;;;;112460;210;39430;-35
2023/10/25 00:35:53;;;;;;;;;;;;;;;;;;112482;210;42764;-36
2023/10/25 00:38:29;;;;;;;;;;;;;;;;;;112168;210;175687;-36
2023/10/25 00:41:04;;;;;;;;;;;;;;;;;;112365;210;38446;-36
2023/10/25 00:43:40;;;;;;;;;;;;;;;;;;112503;210;39539;-36
2023/10/25 00:46:15;;;;;;;;;;;;;;;;;;112407;210;42508;-36
2023/10/25 00:48:50;;;;;;;;;;;;;;;;;;112383;210;175682;-36
2023/10/25 00:51:28;;;;;;;;;;;;;;;;;;112453;210;38473;-36
2023/10/25 00:54:03;;;;;;;;;;;;;;;;;;112430;211;39618;-36
2023/10/25 00:56:37;;;;;;;;;;;;;;;;;;112482;211;42615;-36
2023/10/25 00:59:13;;;;;;;;;;;;;;;;;;112410;211;41384;-36
2023/10/25 01:01:48;;;;;;;;;;;;;;;;;;112337;211;191929;-36
2023/10/25 01:04:21;;;;;;;;;;;;;;;;;;112450;211;39711;-36
2023/10/25 01:06:57;;;;;;;;;;;;;;;;;;112460;211;42747;-36
2023/10/25 01:09:31;;;;;;;;;;;;;;;;;;112438;211;41543;-36
2023/10/25 01:12:07;;;;;;;;;;;;;;;;;;112400;211;38910;-36
2023/10/25 01:14:41;;;;;;;;;;;;;;;;;;112463;211;39535;-36
2023/10/25 01:17:20;;;;;;;;;;;;;;;;;;112448;211;43046;-36
2023/10/25 01:19:58;;;;;;;;;;;;;;;;;;112464;211;42984;-36
2023/10/25 01:22:35;;;;;;;;;;;;;;;;;;112478;211;38513;-36
2023/10/25 01:25:09;;;;;;;;;;;;;;;;;;112370;211;39622;-36
2023/10/25 01:27:44;;;;;;;;;;;;;;;;;;112344;211;175677;-36
2023/10/25 01:30:20;;;;;;;;;;;;;;;;;;112381;211;42763;-36
2023/10/25 01:32:53;;;;;;;;;;;;;;;;;;112476;211;38900;-36
2023/10/25 01:35:28;;;;;;;;;;;;;;;;;;112471;211;39547;-36
2023/10/25 01:38:05;;;;;;;;;;;;;;;;;;112445;211;42522;-36
2023/10/25 01:40:42;;;;;;;;;;;;;;;;;;112290;211;175703;-33
2023/10/25 01:43:21;;;;;;;;;;;;;;;;;;112438;211;38751;-34
2023/10/25 01:45:54;;;;;;;;;;;;;;;;;;112447;211;39319;-34
2023/10/25 01:48:32;;;;;;;;;;;;;;;;;;112317;211;175992;-33
2023/10/25 01:51:06;;;;;;;;;;;;;;;;;;112387;211;41550;-34
2023/10/25 01:53:41;;;;;;;;;;;;;;;;;;112463;211;40061;-33
2023/10/25 01:56:14;;;;;;;;;;;;;;;;;;112393;211;39779;-33
2023/10/25 01:58:46;;;;;;;;;;;;;;;;;;112482;211;42522;-33
2023/10/25 02:01:21;;;;;;;;;;;;;;;;;;112316;211;175677;-33
2023/10/25 02:03:55;;;;;;;;;;;;;;;;;;112541;211;38539;-33
2023/10/25 02:06:31;;;;;;;;;;;;;;;;;;112435;211;41021;-33
2023/10/25 02:09:07;;;;;;;;;;;;;;;;;;112374;211;44076;-33
2023/10/25 02:11:44;;;;;;;;;;;;;;;;;;112434;211;41811;-36
2023/10/25 02:14:18;;;;;;;;;;;;;;;;;;111766;211;894780;-34
2023/10/25 02:16:50;;;;;;;;;;;;;;;;;;112454;211;40706;-34
2023/10/25 02:19:23;;;;;;;;;;;;;;;;;;112407;211;42746;-34
2023/10/25 02:22:00;;;;;;;;;;;;;;;;;;112362;211;41404;-34
2023/10/25 02:24:35;;;;;;;;;;;;;;;;;;112447;211;39125;-34
2023/10/25 02:27:11;;;;;;;;;;;;;;;;;;112471;211;39609;-34
2023/10/25 02:29:50;;;;;;;;;;;;;;;;;;112472;211;42969;-34
2023/10/25 02:32:24;;;;;;;;;;;;;;;;;;112406;211;48754;-34
2023/10/25 02:34:59;;;;;;;;;;;;;;;;;;112420;211;39002;-34
2023/10/25 02:37:37;;;;;;;;;;;;;;;;;;112395;211;39800;-34
2023/10/25 02:40:11;;;;;;;;;;;;;;;;;;112452;211;42800;-34
2023/10/25 02:42:47;;;;;;;;;;;;;;;;;;112394;211;175751;-34
2023/10/25 02:45:21;;;;;;;;;;;;;;;;;;112387;211;38531;-33
2023/10/25 02:47:56;;;;;;;;;;;;;;;;;;112441;211;39369;-34
2023/10/25 02:50:34;;;;;;;;;;;;;;;;;;112447;211;42745;-34
2023/10/25 02:53:08;;;;;;;;;;;;;;;;;;112388;211;47551;-34
2023/10/25 02:55:44;;;;;;;;;;;;;;;;;;111771;211;625943;-34
2023/10/25 02:58:20;;;;;;;;;;;;;;;;;;112403;211;39685;-34
2023/10/25 03:00:54;;;;;;;;;;;;;;;;;;112380;211;42755;-33
2023/10/25 03:03:28;;;;;;;;;;;;;;;;;;112450;211;48731;-33
2023/10/25 03:06:02;;;;;;;;;;;;;;;;;;112425;211;38718;-34
2023/10/25 03:08:36;;;;;;;;;;;;;;;;;;112507;211;39300;-33
2023/10/25 03:11:09;;;;;;;;;;;;;;;;;;112372;211;42761;-34
2023/10/25 03:13:43;;;;;;;;;;;;;;;;;;112429;211;49076;-34
2023/10/25 03:16:17;;;;;;;;;;;;;;;;;;112425;211;38759;-34
2023/10/25 03:18:55;;;;;;;;;;;;;;;;;;112437;211;39897;-34
2023/10/25 03:21:32;;;;;;;;;;;;;;;;;;112467;211;42831;-34
2023/10/25 03:24:07;;;;;;;;;;;;;;;;;;112436;211;47817;-34
2023/10/25 03:26:40;;;;;;;;;;;;;;;;;;112473;211;38835;-33
2023/10/25 03:29:16;;;;;;;;;;;;;;;;;;112471;211;39942;-33
2023/10/25 03:31:57;;;;;;;;;;;;;;;;;;112415;211;42823;-33
2023/10/25 03:34:33;;;;;;;;;;;;;;;;;;112461;211;49043;-34
2023/10/25 03:37:07;;;;;;;;;;;;;;;;;;112429;211;40296;-33
2023/10/25 03:39:43;;;;;;;;;;;;;;;;;;112417;211;39588;-34
2023/10/25 03:42:17;;;;;;;;;;;;;;;;;;112402;211;42788;-34
2023/10/25 03:44:53;;;;;;;;;;;;;;;;;;112382;211;49067;-34
2023/10/25 03:47:30;;;;;;;;;;;;;;;;;;112400;211;39143;-34
2023/10/25 03:50:16;;;;;;;;;;;;;;;;;;112433;211;39927;-36
2023/10/25 03:52:53;;;;;;;;;;;;;;;;;;112285;211;175699;-35
2023/10/25 03:55:28;;;;;;;;;;;;;;;;;;112454;211;41647;-35
2023/10/25 03:58:03;;;;;;;;;;;;;;;;;;112316;211;175712;-36
2023/10/25 04:00:36;;;;;;;;;;;;;;;;;;112398;211;175731;-36
2023/10/25 04:03:09;;;;;;;;;;;;;;;;;;112368;211;42875;-36
2023/10/25 04:05:43;;;;;;;;;;;;;;;;;;112501;211;41708;-35
2023/10/25 04:08:20;;;;;;;;;;;;;;;;;;112450;211;38533;-35
2023/10/25 04:10:54;;;;;;;;;;;;;;;;;;112421;211;39685;-35
2023/10/25 04:13:30;;;;;;;;;;;;;;;;;;112320;211;42812;-36
2023/10/25 04:16:09;;;;;;;;;;;;;;;;;;112427;211;41624;-36
2023/10/25 04:18:42;;;;;;;;;;;;;;;;;;112278;211;39978;-36
2023/10/25 04:21:16;;;;;;;;;;;;;;;;;;112290;211;175689;-36
2023/10/25 04:23:52;;;;;;;;;;;;;;;;;;112411;211;42591;-36
2023/10/25 04:26:27;;;;;;;;;;;;;;;;;;112472;211;41408;-36
2023/10/25 04:29:02;;;;;;;;;;;;;;;;;;112378;211;38488;-36
2023/10/25 04:31:36;;;;;;;;;;;;;;;;;;112393;211;39683;-35
2023/10/25 04:34:10;;;;;;;;;;;;;;;;;;111709;211;893803;-36
2023/10/25 04:36:45;;;;;;;;;;;;;;;;;;112418;211;41760;-36
2023/10/25 04:39:22;;;;;;;;;;;;;;;;;;112407;211;38894;-36
2023/10/25 04:41:57;;;;;;;;;;;;;;;;;;112400;211;39251;-36
2023/10/25 04:44:35;;;;;;;;;;;;;;;;;;112398;211;43967;-36
2023/10/25 04:47:10;;;;;;;;;;;;;;;;;;112376;211;41415;-36
2023/10/25 04:49:47;;;;;;;;;;;;;;;;;;112426;211;38600;-35
2023/10/25 04:52:20;;;;;;;;;;;;;;;;;;112402;211;39779;-36
2023/10/25 04:54:59;;;;;;;;;;;;;;;;;;112250;211;196070;-35
2023/10/25 04:57:37;;;;;;;;;;;;;;;;;;112421;211;41696;-36
2023/10/25 05:00:12;;;;;;;;;;;;;;;;;;112200;211;38952;-36
2023/10/25 05:02:48;;;;;;;;;;;;;;;;;;112411;211;41082;-36
2023/10/25 05:05:23;;;;;;;;;;;;;;;;;;112365;211;42788;-36
2023/10/25 05:08:01;;;;;;;;;;;;;;;;;;112369;211;42908;-36
2023/10/25 05:10:36;;;;;;;;;;;;;;;;;;112462;211;38678;-36
2023/10/25 05:13:11;;;;;;;;;;;;;;;;;;112332;211;175674;-36
2023/10/25 05:15:44;;;;;;;;;;;;;;;;;;112343;211;42927;-36
2023/10/25 05:18:18;;;;;;;;;;;;;;;;;;112471;211;41443;-36
2023/10/25 05:20:57;;;;;;;;;;;;;;;;;;112412;211;38843;-36
2023/10/25 05:23:36;;;;;;;;;;;;;;;;;;112464;211;39527;-36
2023/10/25 05:26:11;;;;;;;;;;;;;;;;;;112412;211;42960;-36
2023/10/25 05:28:45;;;;;;;;;;;;;;;;;;112519;211;42009;-36
2023/10/25 05:31:19;;;;;;;;;;;;;;;;;;112444;211;38726;-36
2023/10/25 05:33:56;;;;;;;;;;;;;;;;;;112379;211;39728;-36
2023/10/25 05:36:29;;;;;;;;;;;;;;;;;;112354;211;42781;-36
2023/10/25 05:39:03;;;;;;;;;;;;;;;;;;112445;211;41430;-36
2023/10/25 05:41:42;;;;;;;;;;;;;;;;;;112404;211;38822;-36
2023/10/25 05:44:17;;;;;;;;;;;;;;;;;;112464;211;39776;-36
2023/10/25 05:46:48;;;;;;;;;;;;;;;;;;112413;211;43110;-36
2023/10/25 05:49:28;;;;;;;;;;;;;;;;;;112443;211;42137;-36
2023/10/25 05:52:02;;;;;;;;;;;;;;;;;;112465;210;38721;-36
2023/10/25 05:54:35;;;;;;;;;;;;;;;;;;112411;210;40051;-36
2023/10/25 05:57:09;;;;;;;;;;;;;;;;;;112437;210;42798;-36
2023/10/25 05:59:42;;;;;;;;;;;;;;;;;;112437;210;41868;-36
2023/10/25 06:02:17;;;;;;;;;;;;;;;;;;112494;210;38444;-36
2023/10/25 06:04:51;;;;;;;;;;;;;;;;;;112496;210;39316;-36
2023/10/25 06:07:28;;;;;;;;;;;;;;;;;;112430;210;43097;-36
2023/10/25 06:10:02;;;;;;;;;;;;;;;;;;112443;210;41625;-36
2023/10/25 06:12:36;;;;;;;;;;;;;;;;;;112503;210;38752;-36
2023/10/25 06:15:12;;;;;;;;;;;;;;;;;;112488;210;39334;-36
2023/10/25 06:17:47;;;;;;;;;;;;;;;;;;112555;210;48539;-36
2023/10/25 06:20:24;;;;;;;;;;;;;;;;;;112500;210;42083;-36
2023/10/25 06:23:02;;;;;;;;;;;;;;;;;;112303;210;175657;-36
2023/10/25 06:25:37;;;;;;;;;;;;;;;;;;112427;210;39318;-36
2023/10/25 06:28:11;;;;;;;;;;;;;;;;;;112428;210;48242;-36
2023/10/25 06:30:47;;;;;;;;;;;;;;;;;;112482;210;40435;-36
2023/10/25 06:33:21;;;;;;;;;;;;;;;;;;112473;211;38994;-36
2023/10/25 06:36:02;;;;;;;;;;;;;;;;;;112293;210;39608;-36
2023/10/25 06:38:41;;;;;;;;;;;;;;;;;;112410;210;48895;-35
2023/10/25 06:41:22;;;;;;;;;;;;;;;;;;112457;211;41612;-35
2023/10/25 06:43:58;;;;;;;;;;;;;;;;;;112504;210;38456;-35
2023/10/25 06:46:31;;;;;;;;;;;;;;;;;;112353;210;40679;-36
2023/10/25 06:49:07;;;;;;;;;;;;;;;;;;112508;211;42570;-36
2023/10/25 06:51:46;;;;;;;;;;;;;;;;;;112404;211;41587;-36
2023/10/25 06:54:19;;;;;;;;;;;;;;;;;;112408;211;38525;-36
2023/10/25 06:56:53;;;;;;;;;;;;;;;;;;112411;211;39675;-36
2023/10/25 06:59:27;;;;;;;;;;;;;;;;;;112381;211;43920;-36
2023/10/25 07:02:09;;;;;;;;;;;;;;;;;;112474;211;42998;-36
2023/10/25 07:04:45;;;;;;;;;;;;;;;;;;112434;211;39335;-36
2023/10/25 07:07:23;;;;;;;;;;;;;;;;;;111701;211;894319;-36
2023/10/25 07:09:59;;;;;;;;;;;;;;;;;;112438;211;42573;-36
2023/10/25 07:12:37;;;;;;;;;;;;;;;;;;112459;211;41882;-36
2023/10/25 07:15:12;;;;;;;;;;;;;;;;;;112416;211;39026;-36
2023/10/25 07:17:44;;;;;;;;;;;;;;;;;;112387;211;39451;-36
2023/10/25 07:20:17;;;;;;;;;;;;;;;;;;112446;211;42903;-36
2023/10/25 07:22:52;;;;;;;;;;;;;;;;;;112438;211;41477;-36
2023/10/25 07:25:28;;;;;;;;;;;;;;;;;;112460;211;38576;-36
2023/10/25 07:28:04;;;;;;;;;;;;;;;;;;112377;211;39655;-36
2023/10/25 07:30:40;;;;;;;;;;;;;;;;;;112300;211;175725;-36
2023/10/25 07:33:13;;;;;;;;;;;;;;;;;;112421;211;41710;-36
2023/10/25 07:35:48;;;;;;;;;;;;;;;;;;112406;211;38782;-36
2023/10/25 07:38:21;;;;;;;;;;;;;;;;;;112428;211;39793;-36
2023/10/25 07:41:00;;;;;;;;;;;;;;;;;;112335;212;43063;-36
2023/10/25 07:43:36;;;;;;;;;;;;;;;;;;112330;212;41713;-36
2023/10/25 07:46:11;;;;;;;;;;;;;;;;;;112335;212;38517;-36
2023/10/25 07:48:44;;;;;;;;;;;;;;;;;;112312;212;39675;-36
2023/10/25 07:51:17;;;;;;;;;;;;;;;;;;112175;211;43894;-36
2023/10/25 07:53:53;;;;;;;;;;;;;;;;;;112352;211;41641;-36
2023/10/25 07:56:28;;;;;;;;;;;;;;;;;;112357;211;38827;-35
2023/10/25 07:59:08;;;;;;;;;;;;;;;;;;112385;211;39954;-35
2023/10/25 08:01:42;;;;;;;;;;;;;;;;;;112466;211;43058;-35
2023/10/25 08:04:19;;;;;;;;;;;;;;;;;;112433;211;41611;-35
2023/10/25 08:06:54;;;;;;;;;;;;;;;;;;112418;211;38908;-35
2023/10/25 08:09:30;;;;;;;;;;;;;;;;;;112351;211;39858;-35
2023/10/25 08:12:06;;;;;;;;;;;;;;;;;;112411;211;42810;-35
2023/10/25 08:14:38;;;;;;;;;;;;;;;;;;112438;211;42064;-35
2023/10/25 08:17:11;;;;;;;;;;;;;;;;;;112352;211;38645;-34
2023/10/25 08:19:47;;;;;;;;;;;;;;;;;;112368;211;39782;-35
2023/10/25 08:22:21;;;;;;;;;;;;;;;;;;112386;211;42984;-35
2023/10/25 08:24:53;;;;;;;;;;;;;;;;;;112438;211;43981;-34
2023/10/25 08:27:31;;;;;;;;;;;;;;;;;;112404;211;38869;-37
2023/10/25 08:30:08;;;;;;;;;;;;;;;;;;112399;211;40886;-35
2023/10/25 08:32:41;;;;;;;;;;;;;;;;;;112444;211;43317;-33
2023/10/25 08:35:19;;;;;;;;;;;;;;;;;;112399;211;42071;-35
2023/10/25 08:37:53;;;;;;;;;;;;;;;;;;112447;211;38887;-37
2023/10/25 08:40:31;;;;;;;;;;;;;;;;;;112406;211;39827;-35
2023/10/25 08:43:05;;;;;;;;;;;;;;;;;;112499;210;42782;-35
2023/10/25 08:45:41;;;;;;;;;;;;;;;;;;112434;210;41671;-36
2023/10/25 08:48:17;;;;;;;;;;;;;;;;;;112419;211;38605;-36
2023/10/25 08:50:49;;;;;;;;;;;;;;;;;;112378;210;39990;-35
2023/10/25 08:53:24;;;;;;;;;;;;;;;;;;112403;210;42606;-35
2023/10/25 08:56:04;;;;;;;;;;;;;;;;;;112424;210;41787;-35
2023/10/25 08:58:41;;;;;;;;;;;;;;;;;;110143;210;3027327;-35
2023/10/25 09:01:18;;;;;;;;;;;;;;;;;;112380;210;45259;-35
2023/10/25 09:03:53;;;;;;;;;;;;;;;;;;112389;210;42707;-36
2023/10/25 09:06:28;;;;;;;;;;;;;;;;;;112438;211;41621;-35
2023/10/25 09:09:11;;;;;;;;;;;;;;;;;;112425;210;39980;-35
2023/10/25 09:11:45;;;;;;;;;;;;;;;;;;112464;210;46085;-34
2023/10/25 09:14:22;;;;;;;;;;;;;;;;;;112418;210;42793;-36
2023/10/25 09:16:57;;;;;;;;;;;;;;;;;;112429;210;41642;-36
2023/10/25 09:19:34;;;;;;;;;;;;;;;;;;112386;210;38511;-36
2023/10/25 09:22:22;;;;;;;;;;;;;;;;;;112432;211;39933;-36
2023/10/25 09:24:58;;;;;;;;;;;;;;;;;;111794;210;892573;-36
2023/10/25 09:27:32;;;;;;;;;;;;;;;;;;112390;210;41668;-36
2023/10/25 09:30:20;;;;;;;;;;;;;;;;;;112389;210;38703;-36
2023/10/25 09:33:01;;;;;;;;;;;;;;;;;;112399;211;40795;-36
2023/10/25 09:35:34;;;;;;;;;;;;;;;;;;112436;210;42744;-36
2023/10/25 09:38:08;;;;;;;;;;;;;;;;;;112424;210;41656;-37
2023/10/25 09:40:43;;;;;;;;;;;;;;;;;;112396;210;38928;-36
2023/10/25 09:43:21;;;;;;;;;;;;;;;;;;112485;210;39591;-36
2023/10/25 09:45:54;;;;;;;;;;;;;;;;;;112443;210;43131;-37
2023/10/25 09:48:29;;;;;;;;;;;;;;;;;;112461;210;41609;-37
2023/10/25 09:51:10;;;;;;;;;;;;;;;;;;112426;211;38978;-37
2023/10/25 09:53:50;;;;;;;;;;;;;;;;;;112466;211;39668;-37
2023/10/25 09:56:24;;;;;;;;;;;;;;;;;;112393;211;43099;-37
2023/10/25 09:59:00;;;;;;;;;;;;;;;;;;112421;211;41631;-37
2023/10/25 10:01:34;;;;;;;;;;;;;;;;;;112409;210;38703;-37
2023/10/25 10:04:14;;;;;;;;;;;;;;;;;;112424;210;39718;-37
2023/10/25 10:06:55;;;;;;;;;;;;;;;;;;112477;210;42867;-37
2023/10/25 10:09:32;;;;;;;;;;;;;;;;;;112411;210;41888;-37
2023/10/25 10:12:08;;;;;;;;;;;;;;;;;;112298;210;39804;-37
2023/10/25 10:14:49;;;;;;;;;;;;;;;;;;112417;210;39645;-37
2023/10/25 10:17:22;;;;;;;;;;;;;;;;;;112472;210;43082;-37
2023/10/25 10:19:59;;;;;;;;;;;;;;;;;;112418;210;41620;-37
2023/10/25 10:22:34;;;;;;;;;;;;;;;;;;112399;210;38466;-37
2023/10/25 10:25:09;;;;;;;;;;;;;;;;;;112378;210;39660;-38
2023/10/25 10:28:05;;;;;;;;;;;;;;;;;;112446;210;43245;-36
2023/10/25 10:30:45;;;;;;;;;;;;;;;;;;112411;210;41663;-33
2023/10/25 10:33:28;;;;;;;;;;;;;;;;;;112366;210;44512;-35
2023/10/25 10:36:08;;;;;;;;;;;;;;;;;;112370;210;40044;-36
2023/10/25 10:39:16;;;;;;;;;;;;;;;;;;112376;210;42725;-37
2023/10/25 10:41:50;;;;;;;;;;;;;;;;;;112230;210;42362;-36
2023/10/25 10:44:24;;;;;;;;;;;;;;;;;;112309;210;175597;-36
2023/10/25 10:47:02;;;;;;;;;;;;;;;;;;112364;210;39582;-36
2023/10/25 10:49:39;;;;;;;;;;;;;;;;;;112410;210;42842;-36
2023/10/25 10:52:17;;;;;;;;;;;;;;;;;;112384;210;41653;-37
2023/10/25 10:54:56;;;;;;;;;;;;;;;;;;111978;211;635282;-37
2023/10/25 10:57:29;;;;;;;;;;;;;;;;;;112386;210;39711;-37
2023/10/25 11:00:03;;;;;;;;;;;;;;;;;;112344;210;43905;-35
2023/10/25 11:02:39;;;;;;;;;;;;;;;;;;112235;210;176080;-35
2023/10/25 11:05:13;;;;;;;;;;;;;;;;;;112312;211;38727;-35
2023/10/25 11:07:48;;;;;;;;;;;;;;;;;;112439;211;41111;-35
2023/10/25 11:10:25;;;;;;;;;;;;;;;;;;112420;210;44069;-34
2023/10/25 11:12:58;;;;;;;;;;;;;;;;;;112334;210;43172;-35
2023/10/25 11:15:35;;;;;;;;;;;;;;;;;;112400;211;38519;-36
2023/10/25 11:18:12;;;;;;;;;;;;;;;;;;112418;210;40905;-36
2023/10/25 11:20:52;;;;;;;;;;;;;;;;;;112403;210;42794;-37
2023/10/25 11:23:25;;;;;;;;;;;;;;;;;;112370;210;41960;-36
2023/10/25 11:25:59;;;;;;;;;;;;;;;;;;112366;210;38769;-36
2023/10/25 11:28:32;;;;;;;;;;;;;;;;;;112239;211;175597;-36
2023/10/25 11:31:08;;;;;;;;;;;;;;;;;;112429;210;43826;-36
2023/10/25 11:33:46;;;;;;;;;;;;;;;;;;112401;210;41859;-36
2023/10/25 11:36:22;;;;;;;;;;;;;;;;;;112398;211;39855;-37
2023/10/25 11:38:57;;;;;;;;;;;;;;;;;;112413;210;40702;-37
2023/10/25 11:41:30;;;;;;;;;;;;;;;;;;112376;211;42806;-36
2023/10/25 11:44:07;;;;;;;;;;;;;;;;;;111692;211;892501;-37
2023/10/25 11:46:44;;;;;;;;;;;;;;;;;;112450;210;38697;-38
2023/10/25 11:49:19;;;;;;;;;;;;;;;;;;112364;210;39501;-38
2023/10/25 11:51:55;;;;;;;;;;;;;;;;;;112428;211;43070;-39
2023/10/25 11:54:30;;;;;;;;;;;;;;;;;;112363;210;41432;-35
2023/10/25 11:57:08;;;;;;;;;;;;;;;;;;112414;210;39438;-35
2023/10/25 11:59:46;;;;;;;;;;;;;;;;;;112431;210;39578;-35
2023/10/25 12:02:24;;;;;;;;;;;;;;;;;;112426;210;43259;-35
2023/10/25 12:04:57;;;;;;;;;;;;;;;;;;112359;210;41404;-35
2023/10/25 12:07:30;;;;;;;;;;;;;;;;;;112389;210;39071;-35
2023/10/25 12:10:04;;;;;;;;;;;;;;;;;;112412;210;39559;-36
2023/10/25 12:12:37;;;;;;;;;;;;;;;;;;112477;210;42467;-36
2023/10/25 12:15:11;;;;;;;;;;;;;;;;;;112474;210;41609;-35
2023/10/25 12:17:46;;;;;;;;;;;;;;;;;;112422;210;38713;-35
2023/10/25 12:20:22;;;;;;;;;;;;;;;;;;112387;210;39780;-36
2023/10/25 12:23:01;;;;;;;;;;;;;;;;;;112367;210;43211;-36
2023/10/25 12:25:37;;;;;;;;;;;;;;;;;;112364;210;47407;-36
2023/10/25 12:28:09;;;;;;;;;;;;;;;;;;112388;210;38763;-37
2023/10/25 12:30:43;;;;;;;;;;;;;;;;;;112418;210;39610;-36
2023/10/25 12:33:19;;;;;;;;;;;;;;;;;;112425;210;42903;-36
2023/10/25 12:35:53;;;;;;;;;;;;;;;;;;112372;210;48366;-36
2023/10/25 12:38:26;;;;;;;;;;;;;;;;;;112429;210;38947;-37
2023/10/25 12:41:03;;;;;;;;;;;;;;;;;;112442;211;39599;-37
2023/10/25 12:43:38;;;;;;;;;;;;;;;;;;112424;210;43104;-36
2023/10/25 12:46:12;;;;;;;;;;;;;;;;;;112538;210;48669;-36
2023/10/25 12:48:50;;;;;;;;;;;;;;;;;;112472;210;38832;-37
2023/10/25 12:51:25;;;;;;;;;;;;;;;;;;112438;211;39591;-37
2023/10/25 12:53:58;;;;;;;;;;;;;;;;;;112430;210;42923;-36
2023/10/25 12:56:34;;;;;;;;;;;;;;;;;;112410;210;41659;-36
2023/10/25 12:59:11;;;;;;;;;;;;;;;;;;112355;210;38844;-38
2023/10/25 13:01:50;;;;;;;;;;;;;;;;;;112457;211;39695;-39
2023/10/25 13:04:24;;;;;;;;;;;;;;;;;;112392;210;42784;-38
2023/10/25 13:06:57;;;;;;;;;;;;;;;;;;112429;210;41627;-38
2023/10/25 13:09:30;;;;;;;;;;;;;;;;;;112428;210;39882;-37
2023/10/25 13:12:07;;;;;;;;;;;;;;;;;;112403;210;39579;-37
2023/10/25 13:14:43;;;;;;;;;;;;;;;;;;112388;210;43001;-39
2023/10/25 13:17:16;;;;;;;;;;;;;;;;;;112413;210;41662;-33
2023/10/25 13:19:55;;;;;;;;;;;;;;;;;;112417;210;38833;-35
2023/10/25 13:22:27;;;;;;;;;;;;;;;;;;112393;210;39636;-35
2023/10/25 13:25:01;;;;;;;;;;;;;;;;;;112350;210;44046;-35
2023/10/25 13:27:34;;;;;;;;;;;;;;;;;;112435;210;41672;-35
2023/10/25 13:30:13;;;;;;;;;;;;;;;;;;112370;210;39342;-36
2023/10/25 13:32:48;;;;;;;;;;;;;;;;;;112393;210;39896;-35
2023/10/25 13:35:23;;;;;;;;;;;;;;;;;;112366;210;42784;-35
2023/10/25 13:37:57;;;;;;;;;;;;;;;;;;112376;210;41643;-38
2023/10/25 13:40:33;;;;;;;;;;;;;;;;;;112476;210;38698;-39
2023/10/25 13:43:05;;;;;;;;;;;;;;;;;;112414;210;39579;-37
2023/10/25 13:45:40;;;;;;;;;;;;;;;;;;112381;210;42831;-37
2023/10/25 13:48:16;;;;;;;;;;;;;;;;;;112272;211;41507;-38
2023/10/25 13:50:55;;;;;;;;;;;;;;;;;;112425;210;38686;-38
2023/10/25 13:53:35;;;;;;;;;;;;;;;;;;112428;211;39325;-41
2023/10/25 13:56:16;;;;;;;;;;;;;;;;;;112403;210;42791;-36
2023/10/25 13:58:51;;;;;;;;;;;;;;;;;;112368;210;42190;-35
2023/10/25 14:01:25;;;;;;;;;;;;;;;;;;112446;210;38835;-35
2023/10/25 14:03:59;;;;;;;;;;;;;;;;;;112487;210;39675;-38
2023/10/25 14:06:33;;;;;;;;;;;;;;;;;;112371;210;42772;-36
2023/10/25 14:09:11;;;;;;;;;;;;;;;;;;112501;210;41620;-36
2023/10/25 14:11:47;;;;;;;;;;;;;;;;;;112379;210;38932;-39
2023/10/25 14:14:25;;;;;;;;;;;;;;;;;;112426;210;39729;-37
2023/10/25 14:16:59;;;;;;;;;;;;;;;;;;112414;210;42909;-38
2023/10/25 14:19:36;;;;;;;;;;;;;;;;;;112394;210;42123;-37
2023/10/25 14:22:08;;;;;;;;;;;;;;;;;;112448;210;38845;-35
2023/10/25 14:24:40;;;;;;;;;;;;;;;;;;112458;210;39518;-40
2023/10/25 14:27:15;;;;;;;;;;;;;;;;;;112389;210;42741;-40
2023/10/25 14:29:47;;;;;;;;;;;;;;;;;;112448;211;41500;-37
2023/10/25 14:32:21;;;;;;;;;;;;;;;;;;112384;210;38853;-36
2023/10/25 14:34:57;;;;;;;;;;;;;;;;;;112416;210;40270;-36
2023/10/25 14:37:32;;;;;;;;;;;;;;;;;;112363;210;43162;-37
2023/10/25 14:40:07;;;;;;;;;;;;;;;;;;112469;210;41364;-37
2023/10/25 14:42:45;;;;;;;;;;;;;;;;;;112399;210;39335;-37
2023/10/25 14:45:17;;;;;;;;;;;;;;;;;;112423;210;39907;-37
2023/10/25 14:47:52;;;;;;;;;;;;;;;;;;112386;210;42757;-37
2023/10/25 14:50:26;;;;;;;;;;;;;;;;;;112422;211;42958;-37
2023/10/25 14:53:02;;;;;;;;;;;;;;;;;;112433;211;38873;-37
2023/10/25 14:55:42;;;;;;;;;;;;;;;;;;112446;210;39643;-37
2023/10/25 14:58:15;;;;;;;;;;;;;;;;;;112394;210;42960;-37
2023/10/25 15:01:00;;;;;;;;;;;;;;;;;;112428;210;41420;-37
2023/10/25 15:03:33;;;;;;;;;;;;;;;;;;112374;210;38752;-37
2023/10/25 15:06:08;;;;;;;;;;;;;;;;;;112455;210;39686;-37
2023/10/25 15:08:45;;;;;;;;;;;;;;;;;;112338;210;44216;-37
2023/10/25 15:11:23;;;;;;;;;;;;;;;;;;112430;210;41663;-37
2023/10/25 15:13:57;;;;;;;;;;;;;;;;;;112417;210;38699;-37
2023/10/25 15:16:36;;;;;;;;;;;;;;;;;;112457;210;40068;-37
2023/10/25 15:19:08;;;;;;;;;;;;;;;;;;112244;211;42848;-37
2023/10/25 15:21:43;;;;;;;;;;;;;;;;;;112372;210;41706;-37
2023/10/25 15:24:26;;;;;;;;;;;;;;;;;;112447;210;39970;-37
2023/10/25 15:27:02;;;;;;;;;;;;;;;;;;112504;210;40660;-37
2023/10/25 15:29:37;;;;;;;;;;;;;;;;;;112421;210;49101;-37
2023/10/25 15:32:12;;;;;;;;;;;;;;;;;;112418;210;41665;-37
2023/10/25 15:34:49;;;;;;;;;;;;;;;;;;112412;210;38492;-37
2023/10/25 15:37:22;;;;;;;;;;;;;;;;;;112391;211;41001;-37
2023/10/25 15:40:01;;;;;;;;;;;;;;;;;;112422;211;50011;-37
2023/10/25 15:42:40;;;;;;;;;;;;;;;;;;112389;211;41931;-37
2023/10/25 15:45:15;;;;;;;;;;;;;;;;;;112432;210;40033;-37
2023/10/25 15:47:52;;;;;;;;;;;;;;;;;;112346;210;39558;-37
2023/10/25 15:50:29;;;;;;;;;;;;;;;;;;112411;210;44394;-37
2023/10/25 15:53:03;;;;;;;;;;;;;;;;;;112437;210;43018;-37
2023/10/25 15:55:50;;;;;;;;;;;;;;;;;;112416;210;39960;-37
2023/10/25 15:58:27;;;;;;;;;;;;;;;;;;112386;210;41009;-37
2023/10/25 16:01:03;;;;;;;;;;;;;;;;;;112439;210;42672;-37
2023/10/25 16:03:38;;;;;;;;;;;;;;;;;;112379;210;41403;-37
2023/10/25 16:06:15;;;;;;;;;;;;;;;;;;112338;210;175248;-37
2023/10/25 16:08:52;;;;;;;;;;;;;;;;;;112246;210;175681;-37
2023/10/25 16:11:29;;;;;;;;;;;;;;;;;;112410;210;42814;-37
2023/10/25 16:14:07;;;;;;;;;;;;;;;;;;112484;210;42921;-37
2023/10/25 16:16:42;;;;;;;;;;;;;;;;;;112406;210;38709;-37
2023/10/25 16:19:18;;;;;;;;;;;;;;;;;;112370;210;41070;-37
2023/10/25 16:21:53;;;;;;;;;;;;;;;;;;112378;210;43114;-37
2023/10/25 16:24:26;;;;;;;;;;;;;;;;;;112267;210;195209;-37
2023/10/25 16:26:58;;;;;;;;;;;;;;;;;;112441;210;38902;-37
2023/10/25 16:29:37;;;;;;;;;;;;;;;;;;112410;210;39760;-37
2023/10/25 16:32:12;;;;;;;;;;;;;;;;;;112375;210;42687;-37
2023/10/25 16:34:47;;;;;;;;;;;;;;;;;;112449;210;41658;-37
2023/10/25 16:37:20;;;;;;;;;;;;;;;;;;112476;210;38963;-37
2023/10/25 16:39:58;;;;;;;;;;;;;;;;;;112385;210;39760;-37
2023/10/25 16:42:33;;;;;;;;;;;;;;;;;;112401;210;42645;-37
2023/10/25 16:45:09;;;;;;;;;;;;;;;;;;112436;210;41858;-37
2023/10/25 16:47:43;;;;;;;;;;;;;;;;;;112445;211;38633;-37
2023/10/25 16:50:18;;;;;;;;;;;;;;;;;;112372;210;39913;-37
2023/10/25 16:52:54;;;;;;;;;;;;;;;;;;112404;211;42891;-37
2023/10/25 16:55:28;;;;;;;;;;;;;;;;;;112424;210;41653;-37
2023/10/25 16:58:02;;;;;;;;;;;;;;;;;;112432;210;38706;-37
2023/10/25 17:00:38;;;;;;;;;;;;;;;;;;112371;210;39605;-37
2023/10/25 17:03:14;;;;;;;;;;;;;;;;;;112388;211;42465;-37
2023/10/25 17:05:48;;;;;;;;;;;;;;;;;;112406;210;41849;-37
2023/10/25 17:08:21;;;;;;;;;;;;;;;;;;112435;210;38827;-37
2023/10/25 17:10:59;;;;;;;;;;;;;;;;;;112387;210;39652;-37
2023/10/25 17:13:36;;;;;;;;;;;;;;;;;;112435;210;43817;-37
2023/10/25 17:16:21;;;;;;;;;;;;;;;;;;112342;210;175279;-37
2023/10/25 17:18:54;;;;;;;;;;;;;;;;;;112376;210;38898;-37
2023/10/25 17:21:30;;;;;;;;;;;;;;;;;;112361;210;39779;-37
2023/10/25 17:24:05;;;;;;;;;;;;;;;;;;112439;210;42912;-37
2023/10/25 17:26:39;;;;;;;;;;;;;;;;;;112443;210;41769;-37
2023/10/25 17:29:15;;;;;;;;;;;;;;;;;;112429;210;39965;-37
2023/10/25 17:31:53;;;;;;;;;;;;;;;;;;112264;211;175682;-37
2023/10/25 17:34:26;;;;;;;;;;;;;;;;;;112378;210;42915;-37
2023/10/25 17:37:05;;;;;;;;;;;;;;;;;;112390;210;41751;-37
2023/10/25 17:39:39;;;;;;;;;;;;;;;;;;112368;210;38887;-37
2023/10/25 17:42:13;;;;;;;;;;;;;;;;;;112287;210;45385;-37